createdAt,value
2022-10-02T00:00:57.044Z,0.80
2022-10-02T00:03:28.408Z,0.60
2022-10-02T00:06:01.293Z,0.52
2022-10-02T00:08:35.575Z,0.70
2022-10-02T00:11:09.137Z,0.70
2022-10-02T00:13:42.156Z,0.63
2022-10-02T00:16:16.197Z,0.60
2022-10-02T00:18:45.127Z,0.90
2022-10-02T00:21:22.313Z,1.25
2022-10-02T00:23:54.960Z,0.60
2022-10-02T00:26:27.517Z,0.50
2022-10-02T00:29:02.605Z,0.83
2022-10-02T00:31:39.376Z,1.20
2022-10-02T00:34:21.772Z,0.80
2022-10-02T00:36:58.489Z,0.95
2022-10-02T00:39:40.767Z,0.70
2022-10-02T00:42:42.041Z,0.80
2022-10-02T00:45:36.939Z,0.85
2022-10-02T00:48:13.685Z,0.60
2022-10-02T00:50:51.097Z,0.70
2022-10-02T00:53:31.710Z,0.80
2022-10-02T00:56:12.763Z,0.88
2022-10-02T00:59:01.065Z,0.98
2022-10-02T01:01:42.314Z,0.77
2022-10-02T01:04:14.356Z,1.48
2022-10-02T01:06:42.921Z,1.17
2022-10-02T01:09:12.016Z,0.70
2022-10-02T01:11:39.710Z,0.88
2022-10-02T01:14:07.800Z,0.70
2022-10-02T01:16:37.020Z,0.80
2022-10-02T01:19:04.947Z,0.90
2022-10-02T01:21:38.513Z,0.70
2022-10-02T01:24:14.764Z,0.88
2022-10-02T01:26:45.733Z,0.93
2022-10-02T01:29:16.416Z,0.77
2022-10-02T01:31:44.205Z,1.17
2022-10-02T01:34:12.253Z,0.70
2022-10-02T01:36:39.983Z,0.90
2022-10-02T01:39:07.833Z,0.90
2022-10-02T01:41:40.931Z,0.70
2022-10-02T01:44:10.608Z,0.75
2022-10-02T01:46:48.241Z,0.60
2022-10-02T01:49:31.397Z,1.13
2022-10-02T01:52:20.041Z,1.27
2022-10-02T01:54:59.336Z,0.77
2022-10-02T01:57:39.052Z,0.93
2022-10-02T02:00:11.797Z,0.77
2022-10-02T02:02:49.326Z,1.13
2022-10-02T02:05:25.805Z,1.10
2022-10-02T02:08:01.847Z,1.00
2022-10-02T02:10:42.680Z,1.42
2022-10-02T02:13:16.916Z,1.17
2022-10-02T02:15:51.829Z,0.80
2022-10-02T02:18:25.892Z,1.08
2022-10-02T02:20:58.384Z,0.80
2022-10-02T02:23:30.695Z,1.20
2022-10-02T02:26:03.628Z,1.20
2022-10-02T02:28:33.815Z,0.98
2022-10-02T02:31:04.636Z,1.52
2022-10-02T02:33:37.683Z,1.00
2022-10-02T02:36:12.508Z,0.60
2022-10-02T02:38:45.223Z,1.52
2022-10-02T02:41:16.386Z,0.85
2022-10-02T02:43:48.284Z,0.70
2022-10-02T02:46:23.791Z,0.77
2022-10-02T02:48:56.958Z,0.85
2022-10-02T02:51:28.500Z,0.90
2022-10-02T02:54:04.114Z,0.93
2022-10-02T02:56:34.269Z,1.08
2022-10-02T02:59:07.516Z,0.80
2022-10-02T03:01:36.952Z,0.57
2022-10-02T03:04:04.545Z,0.95
2022-10-02T03:06:38.022Z,0.80
2022-10-02T03:09:07.996Z,0.95
2022-10-02T03:11:46.744Z,0.80
2022-10-02T03:14:45.688Z,1.27
2022-10-02T03:17:27.936Z,0.75
2022-10-02T03:20:07.164Z,1.10
2022-10-02T03:22:42.106Z,0.95
2022-10-02T03:25:16.621Z,0.63
2022-10-02T03:27:49.335Z,0.90
2022-10-02T03:30:20.550Z,1.02
2022-10-02T03:32:53.517Z,0.88
2022-10-02T03:35:22.687Z,0.73
2022-10-02T03:37:52.983Z,0.73
2022-10-02T03:40:23.037Z,0.57
2022-10-02T03:42:51.808Z,1.45
2022-10-02T03:45:46.194Z,0.80
2022-10-02T03:48:08.844Z,0.88
2022-10-02T03:50:36.707Z,0.95
2022-10-02T03:53:12.888Z,0.90
2022-10-02T03:55:42.835Z,1.27
2022-10-02T03:58:14.528Z,1.20
2022-10-02T04:00:48.032Z,1.02
2022-10-02T04:05:52.615Z,1.20
2022-10-02T04:08:23.512Z,0.70
2022-10-02T04:10:55.561Z,1.00
2022-10-02T04:13:29.712Z,0.68
2022-10-02T04:16:05.993Z,0.98
2022-10-02T04:18:41.627Z,0.93
2022-10-02T04:21:17.326Z,0.85
2022-10-02T04:23:51.525Z,0.82
2022-10-02T04:26:25.528Z,0.70
2022-10-02T04:28:57.708Z,0.90
2022-10-02T04:31:27.204Z,0.90
2022-10-02T04:34:02.320Z,1.08
2022-10-02T04:36:42.008Z,1.02
2022-10-02T04:39:30.424Z,0.90
2022-10-02T04:42:24.158Z,0.90
2022-10-02T04:45:10.381Z,1.17
2022-10-02T04:48:01.357Z,0.68
2022-10-02T04:50:52.577Z,0.73
2022-10-02T04:53:32.854Z,1.13
2022-10-02T04:56:27.720Z,0.90
2022-10-02T04:59:16.967Z,1.05
2022-10-02T05:01:56.526Z,1.38
2022-10-02T05:04:41.856Z,0.73
2022-10-02T05:07:31.019Z,1.10
2022-10-02T05:10:03.260Z,1.00
2022-10-02T05:12:45.745Z,0.73
2022-10-02T05:15:27.595Z,0.80
2022-10-02T05:18:08.810Z,0.75
2022-10-02T05:20:53.160Z,0.88
2022-10-02T05:23:50.921Z,1.67
2022-10-02T05:26:36.952Z,1.30
2022-10-02T05:29:31.092Z,0.77
2022-10-02T05:34:49.585Z,1.20
2022-10-02T05:37:31.665Z,1.00
2022-10-02T05:40:11.123Z,2.70
2022-10-02T05:42:45.035Z,0.90
2022-10-02T05:45:22.592Z,1.00
2022-10-02T05:47:51.682Z,9.05
2022-10-02T05:50:22.344Z,4.00
2022-10-02T05:52:57.150Z,1.98
2022-10-02T05:55:33.769Z,2.33
2022-10-02T05:58:07.258Z,2.50
2022-10-02T06:03:16.128Z,1.45
2022-10-02T06:05:55.148Z,1.40
2022-10-02T06:08:29.709Z,1.50
2022-10-02T06:11:04.300Z,7.07
2022-10-02T06:13:37.992Z,1.33
2022-10-02T06:16:13.577Z,0.57
2022-10-02T06:18:44.799Z,0.63
2022-10-02T06:21:24.994Z,0.80
2022-10-02T06:23:57.025Z,0.90
2022-10-02T06:26:39.229Z,1.67
2022-10-02T06:29:18.660Z,1.30
2022-10-02T06:31:54.519Z,1.25
2022-10-02T06:34:23.475Z,1.40
2022-10-02T06:37:04.350Z,1.40
2022-10-02T06:39:57.871Z,2.55
2022-10-02T06:42:42.675Z,1.30
2022-10-02T06:45:24.156Z,1.10
2022-10-02T06:48:02.982Z,1.95
2022-10-02T06:50:42.920Z,2.50
2022-10-02T06:53:25.491Z,1.50
2022-10-02T06:56:01.216Z,1.10
2022-10-02T06:58:46.253Z,2.78
2022-10-02T07:01:25.946Z,2.40
2022-10-02T07:04:07.740Z,1.33
2022-10-02T07:06:47.239Z,1.70
2022-10-02T07:09:39.324Z,2.30
2022-10-02T07:12:21.051Z,1.85
2022-10-02T07:15:10.864Z,2.15
2022-10-02T07:17:54.164Z,1.33
2022-10-02T07:20:33.535Z,1.20
2022-10-02T07:23:26.497Z,0.90
2022-10-02T07:26:15.365Z,0.75
2022-10-02T07:28:51.413Z,0.80
2022-10-02T07:31:33.003Z,1.00
2022-10-02T07:34:15.581Z,0.90
2022-10-02T07:36:50.000Z,0.85
2022-10-02T07:39:33.056Z,0.90
2022-10-02T07:42:14.577Z,1.23
2022-10-02T07:45:02.256Z,2.03
2022-10-02T07:47:46.936Z,1.42
2022-10-02T07:50:20.230Z,0.50
2022-10-02T07:52:56.329Z,0.75
2022-10-02T07:55:24.999Z,0.95
2022-10-02T07:58:00.478Z,1.40
2022-10-02T08:00:31.883Z,0.60
2022-10-02T08:03:03.580Z,0.47
2022-10-02T08:05:35.776Z,0.60
2022-10-02T08:08:10.796Z,2.30
2022-10-02T08:10:42.612Z,1.98
2022-10-02T08:13:20.638Z,4.03
2022-10-02T08:15:52.377Z,1.10
2022-10-02T08:18:36.144Z,1.38
2022-10-02T08:21:06.487Z,0.90
2022-10-02T08:23:40.191Z,0.47
2022-10-02T08:26:12.532Z,0.80
2022-10-02T08:28:44.887Z,0.50
2022-10-02T08:31:13.331Z,0.60
2022-10-02T08:33:43.179Z,0.50
2022-10-02T08:36:29.760Z,1.63
2022-10-02T08:39:09.268Z,0.50
2022-10-02T08:42:12.359Z,0.70
2022-10-02T08:45:14.771Z,0.80
2022-10-02T08:48:12.064Z,0.55
2022-10-02T08:51:20.580Z,0.75
2022-10-02T08:54:27.019Z,1.13
2022-10-02T08:57:13.126Z,0.68
2022-10-02T09:00:10.069Z,2.30
2022-10-02T09:03:15.789Z,2.33
2022-10-02T09:06:16.969Z,2.63
2022-10-02T09:09:35.636Z,2.45
2022-10-02T09:12:24.064Z,0.60
2022-10-02T09:14:58.020Z,0.52
2022-10-02T09:17:44.104Z,1.40
2022-10-02T09:21:08.112Z,1.10
2022-10-02T09:24:17.039Z,0.73
2022-10-02T09:27:03.388Z,0.90
2022-10-02T09:30:09.914Z,0.52
2022-10-02T09:33:29.312Z,1.27
2022-10-02T09:36:40.899Z,1.00
2022-10-02T09:39:36.262Z,0.90
2022-10-02T09:42:44.637Z,0.63
2022-10-02T09:45:40.945Z,1.63
2022-10-02T09:48:40.793Z,1.23
2022-10-02T09:51:41.753Z,0.35
2022-10-02T09:54:42.166Z,0.50
2022-10-02T09:57:45.180Z,0.77
2022-10-02T10:00:27.468Z,0.80
2022-10-02T10:03:31.120Z,3.33
2022-10-02T10:06:29.495Z,1.10
2022-10-02T10:09:34.843Z,1.92
2022-10-02T10:12:35.211Z,1.10
2022-10-02T10:15:38.470Z,0.85
2022-10-02T10:18:36.313Z,1.15
2022-10-02T10:21:18.073Z,0.70
2022-10-02T10:24:27.653Z,0.50
2022-10-02T10:27:18.016Z,0.45
2022-10-02T10:30:09.637Z,0.88
2022-10-02T10:33:02.872Z,1.02
2022-10-02T10:36:29.325Z,0.80
2022-10-02T10:39:14.615Z,0.65
2022-10-02T10:42:24.067Z,0.50
2022-10-02T10:45:19.891Z,0.32
2022-10-02T10:48:05.328Z,0.50
2022-10-02T10:50:44.292Z,0.50
2022-10-02T10:53:34.304Z,0.60
2022-10-02T10:56:36.969Z,0.35
2022-10-02T10:59:49.107Z,0.30
2022-10-02T11:02:54.715Z,0.50
2022-10-02T11:05:40.844Z,0.50
2022-10-02T11:08:33.214Z,0.40
2022-10-02T11:11:08.723Z,0.80
2022-10-02T11:13:58.248Z,0.68
2022-10-02T11:17:03.396Z,0.43
2022-10-02T11:19:47.642Z,0.40
2022-10-02T11:22:40.650Z,0.32
2022-10-02T11:25:46.966Z,0.40
2022-10-02T11:28:40.013Z,0.20
2022-10-02T11:31:22.738Z,0.30
2022-10-02T11:34:22.087Z,0.13
2022-10-02T11:37:09.298Z,0.20
2022-10-02T11:40:15.274Z,0.20
2022-10-02T11:42:58.820Z,0.28
2022-10-02T11:45:41.665Z,4.72
2022-10-02T11:48:51.038Z,4.10
2022-10-02T11:51:36.923Z,2.10
2022-10-02T11:54:22.139Z,0.70
2022-10-02T11:57:16.045Z,0.40
2022-10-02T12:02:27.256Z,0.40
2022-10-02T12:05:10.790Z,0.30
2022-10-02T12:07:44.103Z,0.40
2022-10-02T12:10:29.399Z,0.40
2022-10-02T12:13:11.993Z,0.65
2022-10-02T12:15:47.816Z,1.20
2022-10-02T12:18:28.067Z,0.57
2022-10-02T12:21:32.924Z,1.02
2022-10-02T12:24:29.444Z,0.70
2022-10-02T12:27:04.161Z,0.68
2022-10-02T12:30:00.371Z,0.70
2022-10-02T12:32:42.274Z,1.30
2022-10-02T12:35:26.180Z,1.35
2022-10-02T12:38:03.677Z,0.70
2022-10-02T12:40:38.339Z,0.82
2022-10-02T12:43:40.316Z,0.50
2022-10-02T12:46:21.027Z,0.57
2022-10-02T12:49:14.929Z,0.70
2022-10-02T12:54:58.864Z,3.38
2022-10-02T12:57:56.109Z,2.55
2022-10-02T13:00:26.537Z,1.00
2022-10-02T13:03:31.195Z,0.68
2022-10-02T13:06:33.760Z,0.38
2022-10-02T13:09:29.731Z,0.57
2022-10-02T13:12:17.808Z,0.40
2022-10-02T13:15:18.838Z,0.70
2022-10-02T13:17:55.845Z,0.30
2022-10-02T13:20:37.747Z,6.00
2022-10-02T13:23:17.717Z,3.80
2022-10-02T13:25:58.706Z,0.82
2022-10-02T13:28:53.908Z,0.30
2022-10-02T13:31:36.529Z,0.30
2022-10-02T13:34:22.424Z,0.40
2022-10-02T13:37:05.663Z,0.35
2022-10-02T13:40:03.328Z,0.60
2022-10-02T13:42:43.969Z,0.38
2022-10-02T13:45:19.442Z,0.50
2022-10-02T13:47:57.185Z,0.73
2022-10-02T13:50:42.169Z,0.60
2022-10-02T13:53:34.308Z,0.68
2022-10-02T13:56:14.687Z,0.50
2022-10-02T13:58:57.430Z,0.60
2022-10-02T14:01:35.663Z,0.70
2022-10-02T14:04:27.253Z,0.75
2022-10-02T14:07:00.726Z,0.75
2022-10-02T14:12:23.222Z,0.98
2022-10-02T14:15:07.327Z,0.80
2022-10-02T14:17:42.321Z,1.00
2022-10-02T14:20:23.421Z,1.17
2022-10-02T14:23:09.516Z,1.40
2022-10-02T14:25:51.907Z,1.80
2022-10-02T14:28:34.794Z,2.55
2022-10-02T14:31:17.534Z,1.80
2022-10-02T14:34:08.616Z,1.00
2022-10-02T14:36:41.124Z,1.52
2022-10-02T14:39:21.084Z,1.60
2022-10-02T14:42:03.756Z,2.10
2022-10-02T14:44:57.254Z,1.00
2022-10-02T14:47:42.372Z,0.80
2022-10-02T14:50:34.039Z,2.10
2022-10-02T14:53:15.480Z,1.80
2022-10-02T14:56:22.540Z,5.43
2022-10-02T14:59:04.927Z,2.00
2022-10-02T15:01:42.141Z,1.20
2022-10-02T15:04:29.164Z,1.35
2022-10-02T15:07:07.720Z,0.90
2022-10-02T15:09:49.159Z,0.50
2022-10-02T15:12:20.750Z,0.60
2022-10-02T15:14:58.943Z,1.10
2022-10-02T15:17:53.751Z,0.90
2022-10-02T15:20:27.364Z,1.05
2022-10-02T15:22:57.373Z,0.90
2022-10-02T15:25:36.533Z,1.50
2022-10-02T15:28:35.212Z,1.63
2022-10-02T15:31:17.021Z,1.70
2022-10-02T15:33:56.696Z,1.05
2022-10-02T15:36:37.175Z,1.13
2022-10-02T15:39:32.161Z,1.40
2022-10-02T15:42:05.946Z,1.70
2022-10-02T15:45:07.336Z,2.00
2022-10-02T15:47:58.661Z,1.52
2022-10-02T15:50:43.870Z,1.30
2022-10-02T15:53:32.392Z,1.40
2022-10-02T15:56:19.937Z,1.10
2022-10-02T15:59:08.513Z,1.10
2022-10-02T16:01:52.234Z,1.52
2022-10-02T16:07:37.047Z,1.80
2022-10-02T16:10:18.192Z,5.70
2022-10-02T16:13:22.260Z,5.25
2022-10-02T16:15:53.210Z,2.95
2022-10-02T16:18:35.117Z,2.83
2022-10-02T16:21:33.721Z,3.63
2022-10-02T16:24:25.165Z,3.10
2022-10-02T16:27:20.172Z,2.60
2022-10-02T16:30:03.881Z,2.38
2022-10-02T16:35:26.002Z,2.40
2022-10-02T16:38:00.841Z,1.65
2022-10-02T16:40:41.044Z,1.73
2022-10-02T16:43:43.099Z,2.10
2022-10-02T16:46:14.382Z,4.75
2022-10-02T16:48:52.902Z,6.45
2022-10-02T16:51:39.919Z,5.65
2022-10-02T16:54:16.666Z,6.45
2022-10-02T16:56:53.255Z,4.57
2022-10-02T16:59:28.014Z,3.03
2022-10-02T17:02:18.937Z,2.10
2022-10-02T17:04:59.953Z,1.30
2022-10-02T17:07:37.086Z,1.40
2022-10-02T17:10:19.180Z,1.48
2022-10-02T17:12:56.975Z,1.92
2022-10-02T17:15:34.197Z,1.50
2022-10-02T17:18:12.256Z,1.85
2022-10-02T17:20:44.678Z,2.20
2022-10-02T17:23:20.352Z,2.35
2022-10-02T17:25:58.364Z,5.03
2022-10-02T17:28:35.976Z,9.77
2022-10-02T17:31:17.672Z,15.40
2022-10-02T17:33:47.878Z,4.68
2022-10-02T17:36:21.087Z,3.30
2022-10-02T17:39:08.152Z,3.60
2022-10-02T17:41:48.348Z,1.83
2022-10-02T17:44:25.167Z,1.60
2022-10-02T17:47:16.204Z,0.90
2022-10-02T17:49:57.715Z,1.00
2022-10-02T17:52:50.040Z,1.02
2022-10-02T17:55:54.100Z,0.80
2022-10-02T17:58:31.429Z,1.40
2022-10-02T18:01:13.664Z,1.60
2022-10-02T18:04:03.429Z,1.63
2022-10-02T18:06:41.822Z,2.60
2022-10-02T18:09:30.724Z,3.05
2022-10-02T18:12:18.665Z,3.20
2022-10-02T18:15:04.652Z,2.22
2022-10-02T18:17:45.961Z,9.18
2022-10-02T18:20:24.377Z,4.13
2022-10-02T18:23:11.244Z,2.63
2022-10-02T18:25:56.905Z,1.30
2022-10-02T18:28:48.486Z,1.40
2022-10-02T18:31:51.108Z,1.13
2022-10-02T18:34:38.191Z,1.55
2022-10-02T18:37:25.317Z,1.77
2022-10-02T18:40:06.839Z,3.67
2022-10-02T18:42:46.452Z,4.20
2022-10-02T18:45:36.771Z,8.55
2022-10-02T18:48:19.980Z,11.80
2022-10-02T18:51:16.734Z,7.30
2022-10-02T18:53:59.232Z,2.92
2022-10-02T18:56:44.340Z,2.22
2022-10-02T18:59:23.316Z,2.00
2022-10-02T19:02:03.016Z,2.53
2022-10-02T19:04:59.867Z,2.13
2022-10-02T19:07:37.665Z,2.50
2022-10-02T19:10:26.151Z,6.72
2022-10-02T19:12:57.354Z,5.72
2022-10-02T19:15:28.313Z,5.78
2022-10-02T19:18:01.257Z,5.97
2022-10-02T19:20:38.079Z,5.65
2022-10-02T19:23:10.016Z,7.20
2022-10-02T19:25:37.576Z,5.65
2022-10-02T19:28:06.420Z,7.22
2022-10-02T19:30:34.660Z,7.35
2022-10-02T19:33:07.568Z,6.20
2022-10-02T19:35:42.392Z,5.63
2022-10-02T19:38:21.055Z,4.32
2022-10-02T19:40:53.880Z,3.25
2022-10-02T19:43:26.433Z,2.90
2022-10-02T19:45:58.575Z,2.67
2022-10-02T19:48:28.821Z,2.88
2022-10-02T19:50:59.423Z,2.10
2022-10-02T19:53:34.009Z,2.90
2022-10-02T19:56:04.815Z,2.03
2022-10-02T19:58:38.557Z,1.90
2022-10-02T20:01:16.594Z,2.00
2022-10-02T20:03:45.274Z,2.30
2022-10-02T20:06:17.612Z,2.47
2022-10-02T20:08:54.743Z,2.08
2022-10-02T20:11:31.206Z,7.82
2022-10-02T20:14:05.388Z,5.00
2022-10-02T20:16:50.633Z,7.00
2022-10-02T20:19:21.695Z,20.92
2022-10-02T20:21:52.194Z,17.33
2022-10-02T20:24:27.780Z,24.02
2022-10-02T20:27:01.980Z,8.05
2022-10-02T20:29:36.948Z,6.38
2022-10-02T20:32:09.399Z,6.28
2022-10-02T20:34:40.753Z,6.93
2022-10-02T20:37:13.776Z,3.63
2022-10-02T20:39:49.412Z,2.33
2022-10-02T20:42:22.817Z,3.00
2022-10-02T20:44:51.291Z,2.70
2022-10-02T20:48:03.632Z,2.33
2022-10-02T20:50:41.359Z,2.33
2022-10-02T20:53:37.102Z,1.90
2022-10-02T20:56:11.131Z,2.45
2022-10-02T20:59:06.734Z,2.10
2022-10-02T21:01:46.064Z,2.20
2022-10-02T21:04:44.558Z,2.20
2022-10-02T21:07:50.228Z,2.25
2022-10-02T21:10:53.089Z,2.22
2022-10-02T21:13:48.440Z,2.65
2022-10-02T21:16:52.593Z,2.70
2022-10-02T21:22:47.033Z,6.43
2022-10-02T21:25:37.882Z,6.78
2022-10-02T21:28:41.734Z,6.22
2022-10-02T21:31:24.729Z,7.25
2022-10-02T21:34:04.383Z,6.18
2022-10-02T21:36:35.484Z,4.70
2022-10-02T21:39:48.397Z,5.10
2022-10-02T21:42:44.448Z,6.43
2022-10-02T21:45:45.223Z,7.13
2022-10-02T21:49:15.226Z,6.18
2022-10-02T21:52:17.007Z,5.72
2022-10-02T21:55:18.491Z,5.03
2022-10-02T21:58:12.869Z,4.93
2022-10-02T22:00:56.205Z,5.97
2022-10-02T22:03:45.377Z,5.20
2022-10-02T22:06:31.889Z,5.35
2022-10-02T22:09:12.312Z,5.20
2022-10-02T22:11:50.843Z,5.05
2022-10-02T22:14:28.147Z,5.65
2022-10-02T22:17:05.096Z,5.85
2022-10-02T22:19:48.927Z,5.68
2022-10-02T22:22:26.813Z,5.18
2022-10-02T22:25:07.341Z,5.45
2022-10-02T22:28:03.571Z,5.55
2022-10-02T22:30:38.405Z,6.30
2022-10-02T22:33:21.037Z,6.15
2022-10-02T22:36:17.969Z,6.38
2022-10-02T22:38:49.893Z,5.95
2022-10-02T22:41:27.321Z,5.60
2022-10-02T22:43:57.831Z,6.03
2022-10-02T22:46:37.793Z,6.28
2022-10-02T22:49:19.275Z,6.28
2022-10-02T22:52:00.031Z,6.72
2022-10-02T22:54:33.843Z,5.75
2022-10-02T22:57:14.616Z,5.30
2022-10-02T22:59:50.578Z,4.90
2022-10-02T23:02:23.613Z,5.50
2022-10-02T23:05:00.181Z,5.43
2022-10-02T23:07:34.949Z,5.35
2022-10-02T23:10:05.975Z,5.13
2022-10-02T23:12:39.481Z,6.47
2022-10-02T23:17:56.203Z,3.60
2022-10-02T23:20:31.601Z,4.90
2022-10-02T23:23:09.272Z,4.43
2022-10-02T23:25:45.504Z,4.45
2022-10-02T23:28:19.314Z,4.53
2022-10-02T23:30:51.555Z,3.97
2022-10-02T23:33:25.936Z,4.03
2022-10-02T23:36:02.537Z,4.30
2022-10-02T23:38:42.214Z,4.57
2022-10-02T23:41:33.758Z,4.18
2022-10-02T23:44:13.173Z,4.45
2022-10-02T23:46:59.211Z,4.82
2022-10-02T23:49:35.032Z,5.82
2022-10-02T23:52:29.029Z,5.38
2022-10-02T23:57:45.839Z,4.75
